Time;durP1;ratioP1;P1;durP2;ratioP2;P2;SDS_P1;SDS_P2;PMS_P1;PMS_P2;Temp;Humidity;BMP_temperature;BMP_pressure;BME280_temperature;BME280_humidity;BME280_pressure;Samples;Min_cycle;Max_cycle;Signal;HPM_P1;HPM_P2
2021/11/11 00:01:26;;;;;;;1.50;1.40;;;5.00;99.90;;;;;;5050920;28;20226;-81
2021/11/11 00:03:53;;;;;;;0.95;0.95;;;5.00;99.90;;;;;;5050823;28;20181;-81
2021/11/11 00:06:19;;;;;;;0.57;0.57;;;5.10;99.90;;;;;;5050832;28;20245;-81
2021/11/11 00:08:45;;;;;;;1.25;1.10;;;5.10;99.90;;;;;;5049579;28;20173;-81
2021/11/11 00:11:11;;;;;;;0.65;0.65;;;5.10;99.90;;;;;;5049505;28;20594;-81
2021/11/11 00:13:37;;;;;;;2.63;2.35;;;5.10;99.90;;;;;;5049357;28;20217;-82
2021/11/11 00:16:03;;;;;;;1.35;1.30;;;5.00;99.90;;;;;;5049458;28;20262;-79
2021/11/11 00:18:30;;;;;;;0.50;0.50;;;4.90;99.90;;;;;;5050477;28;20244;-82
2021/11/11 00:20:56;;;;;;;0.52;0.52;;;4.80;99.90;;;;;;5049187;28;20169;-82
2021/11/11 00:23:22;;;;;;;0.13;0.13;;;4.80;99.90;;;;;;5050429;28;20185;-82
2021/11/11 00:25:48;;;;;;;0.13;0.13;;;4.80;99.90;;;;;;5050562;28;20222;-82
2021/11/11 00:28:14;;;;;;;0.35;0.35;;;4.80;99.90;;;;;;5053720;28;20168;-82
2021/11/11 00:30:40;;;;;;;1.55;1.48;;;4.80;99.90;;;;;;5070335;28;20160;-82
2021/11/11 00:33:06;;;;;;;1.80;1.70;;;4.90;99.90;;;;;;5070177;28;20204;-82
2021/11/11 00:35:33;;;;;;;0.20;0.20;;;5.00;99.90;;;;;;5054532;28;20175;-83
2021/11/11 00:38:00;;;;;;;2.28;2.10;;;5.00;99.90;;;;;;5050230;28;20156;-82
2021/11/11 00:40:28;;;;;;;2.58;2.47;;;5.00;99.90;;;;;;5050293;28;20590;-81
2021/11/11 00:42:54;;;;;;;6.88;3.38;;;5.00;99.90;;;;;;5048846;28;20291;-81
2021/11/11 00:45:20;;;;;;;2.67;2.58;;;5.00;99.90;;;;;;5048810;28;20162;-81
2021/11/11 00:47:49;;;;;;;1.15;1.10;;;5.00;99.90;;;;;;5050138;28;20168;-81
2021/11/11 00:50:16;;;;;;;2.45;2.25;;;4.90;99.90;;;;;;5049945;28;20174;-82
2021/11/11 00:52:42;;;;;;;1.27;1.27;;;4.80;99.90;;;;;;5048654;28;20204;-82
2021/11/11 00:55:10;;;;;;;0.65;0.65;;;4.80;99.90;;;;;;5048468;28;20316;-81
2021/11/11 00:57:36;;;;;;;0.52;0.52;;;4.80;99.90;;;;;;5069839;28;20196;-80
2021/11/11 01:00:05;;;;;;;4.60;2.00;;;4.70;99.90;;;;;;5068396;28;20199;-80
2021/11/11 01:02:34;;;;;;;0.40;0.40;;;4.70;99.90;;;;;;5068637;28;20223;-80
2021/11/11 01:05:00;;;;;;;2.58;2.45;;;4.70;99.90;;;;;;5068366;28;20248;-81
2021/11/11 01:07:26;;;;;;;0.63;0.63;;;4.70;99.90;;;;;;5069711;28;20157;-81
2021/11/11 01:09:52;;;;;;;1.38;1.38;;;4.70;99.90;;;;;;5069592;28;20165;-80
2021/11/11 01:12:18;;;;;;;1.90;0.98;;;4.60;99.90;;;;;;5068363;28;20220;-81
2021/11/11 01:14:44;;;;;;;1.38;1.38;;;4.60;99.90;;;;;;5068125;28;20165;-80
2021/11/11 01:17:10;;;;;;;1.17;0.73;;;4.60;99.90;;;;;;5067764;28;20169;-81
2021/11/11 01:19:36;;;;;;;2.47;2.38;;;4.70;99.90;;;;;;5069342;28;20188;-80
2021/11/11 01:22:03;;;;;;;1.33;1.30;;;4.60;99.90;;;;;;5069331;28;20180;-81
2021/11/11 01:24:30;;;;;;;0.68;0.68;;;4.60;99.90;;;;;;5068113;28;20190;-82
2021/11/11 01:26:55;;;;;;;1.30;1.13;;;4.60;99.90;;;;;;5069403;28;20180;-82
2021/11/11 01:29:22;;;;;;;0.32;0.32;;;4.60;99.90;;;;;;5069115;28;20179;-82
2021/11/11 01:31:48;;;;;;;1.40;1.40;;;4.70;99.90;;;;;;5067869;28;20199;-82
2021/11/11 01:34:14;;;;;;;4.80;3.78;;;4.80;99.90;;;;;;5062661;28;20181;-82
2021/11/11 01:36:40;;;;;;;0.70;0.70;;;4.80;99.90;;;;;;5049223;28;20196;-82
2021/11/11 01:39:07;;;;;;;11.43;3.45;;;4.70;99.90;;;;;;5047728;28;20212;-81
2021/11/11 01:41:34;;;;;;;0.85;0.85;;;4.70;99.90;;;;;;5047775;28;20196;-82
2021/11/11 01:44:00;;;;;;;1.25;1.17;;;4.70;99.90;;;;;;5049060;28;20158;-81
2021/11/11 01:46:27;;;;;;;0.35;0.35;;;4.60;99.90;;;;;;5048936;28;20188;-81
2021/11/11 01:48:54;;;;;;;0.75;0.75;;;4.60;99.90;;;;;;5049025;28;20172;-81
2021/11/11 01:51:22;;;;;;;0.73;0.73;;;4.50;99.90;;;;;;5048946;28;20214;-81
2021/11/11 01:53:49;;;;;;;0.77;0.75;;;4.50;99.90;;;;;;5049074;28;20168;-81
2021/11/11 01:56:16;;;;;;;3.33;3.13;;;4.50;99.90;;;;;;5058413;28;20220;-81
2021/11/11 01:58:41;;;;;;;6.18;1.65;;;4.60;99.90;;;;;;5067616;28;20715;-81
2021/11/11 02:01:07;;;;;;;1.65;0.95;;;4.70;99.90;;;;;;5068862;28;20165;-81
2021/11/11 02:03:33;;;;;;;0.20;0.20;;;4.70;99.90;;;;;;5067425;28;20196;-81
2021/11/11 02:05:59;;;;;;;4.05;2.53;;;4.80;99.90;;;;;;5068848;28;20153;-82
2021/11/11 02:08:26;;;;;;;0.85;0.85;;;4.70;99.90;;;;;;5067514;28;20164;-81
2021/11/11 02:10:52;;;;;;;0.10;0.10;;;4.70;99.90;;;;;;5068796;28;20219;-81
2021/11/11 02:13:20;;;;;;;0.60;0.60;;;4.60;99.90;;;;;;5067364;28;20193;-80
2021/11/11 02:15:46;;;;;;;2.17;2.08;;;4.60;99.90;;;;;;5067423;28;20215;-81
2021/11/11 02:18:12;;;;;;;1.45;1.38;;;4.70;99.90;;;;;;5067418;28;20168;-81
2021/11/11 02:20:41;;;;;;;1.95;1.83;;;4.60;99.90;;;;;;5068655;28;20211;-81
2021/11/11 02:23:11;;;;;;;1.20;1.20;;;4.70;99.90;;;;;;5067283;28;20260;-81
2021/11/11 02:25:38;;;;;;;1.75;1.65;;;4.70;99.90;;;;;;5067298;28;20164;-81
2021/11/11 02:28:08;;;;;;;2.83;1.48;;;4.60;99.90;;;;;;5068186;28;20298;-81
2021/11/11 02:30:35;;;;;;;3.28;2.72;;;4.60;99.90;;;;;;5071246;28;20192;-81
2021/11/11 02:33:09;;;;;;;2.80;1.85;;;4.70;99.90;;;;;;5072439;28;20200;-81
2021/11/11 02:35:34;;;;;;;0.70;0.70;;;4.70;99.90;;;;;;5056260;28;20169;-81
2021/11/11 02:38:01;;;;;;;4.85;3.13;;;4.70;99.90;;;;;;5051030;28;20196;-80
2021/11/11 02:40:28;;;;;;;0.40;0.40;;;4.60;99.90;;;;;;5052283;28;20209;-81
2021/11/11 02:42:55;;;;;;;1.27;1.27;;;4.50;99.90;;;;;;5050936;28;20193;-80
2021/11/11 02:45:25;;;;;;;1.75;1.35;;;4.50;99.90;;;;;;5051020;28;20175;-81
2021/11/11 02:47:52;;;;;;;5.85;1.25;;;4.50;99.90;;;;;;5052401;28;20193;-80
2021/11/11 02:50:19;;;;;;;2.47;1.48;;;4.50;99.90;;;;;;5051033;28;20196;-80
2021/11/11 02:52:48;;;;;;;1.35;1.35;;;4.50;99.90;;;;;;5050916;28;20243;-80
2021/11/11 02:55:14;;;;;;;1.65;1.55;;;4.50;99.90;;;;;;5052972;28;20274;-79
2021/11/11 02:57:43;;;;;;;0.20;0.20;;;4.50;99.90;;;;;;5070833;28;20177;-80
2021/11/11 03:00:15;;;;;;;1.38;0.60;;;4.50;99.90;;;;;;5072010;28;20188;-80
2021/11/11 03:02:44;;;;;;;1.65;1.55;;;4.50;99.90;;;;;;5070563;28;20192;-80
2021/11/11 03:05:14;;;;;;;0.52;0.52;;;4.50;99.90;;;;;;5070742;28;20665;-80
2021/11/11 03:07:41;;;;;;;0.30;0.30;;;4.50;99.90;;;;;;5071938;28;20528;-80
2021/11/11 03:10:11;;;;;;;0.60;0.60;;;4.40;99.90;;;;;;5071729;28;20172;-80
2021/11/11 03:12:37;;;;;;;0.20;0.20;;;4.40;99.90;;;;;;5071775;28;20256;-80
2021/11/11 03:15:04;;;;;;;0.75;0.75;;;4.50;99.90;;;;;;5070395;28;20183;-79
2021/11/11 03:17:30;;;;;;;3.30;1.33;;;4.60;99.90;;;;;;5071763;28;20161;-80
2021/11/11 03:19:56;;;;;;;1.65;1.63;;;4.60;99.90;;;;;;5071582;28;20184;-80
2021/11/11 03:22:23;;;;;;;1.85;1.75;;;4.70;99.90;;;;;;5070247;28;20721;-80
2021/11/11 03:24:50;;;;;;;2.08;1.17;;;4.70;99.90;;;;;;5070251;28;20171;-80
2021/11/11 03:27:17;;;;;;;1.23;1.20;;;4.60;99.90;;;;;;5070337;28;20625;-79
2021/11/11 03:29:44;;;;;;;0.10;0.10;;;4.50;99.90;;;;;;5071409;28;20172;-79
2021/11/11 03:32:10;;;;;;;1.23;1.23;;;4.40;99.90;;;;;;5071200;28;20211;-79
2021/11/11 03:34:37;;;;;;;0.93;0.60;;;4.30;99.90;;;;;;5061845;28;20181;-83
2021/11/11 03:37:04;;;;;;;1.02;0.75;;;4.30;99.90;;;;;;5051261;28;20173;-83
2021/11/11 03:39:30;;;;;;;1.02;1.02;;;4.30;99.90;;;;;;5049516;28;20196;-82
2021/11/11 03:41:56;;;;;;;0.30;0.30;;;4.30;99.90;;;;;;5050862;28;20189;-83
2021/11/11 03:44:23;;;;;;;1.75;1.75;;;4.30;99.90;;;;;;5051124;28;20215;-83
2021/11/11 03:46:53;;;;;;;0.95;0.95;;;4.30;99.90;;;;;;5049860;28;20161;-83
2021/11/11 03:49:19;;;;;;;1.17;1.10;;;4.30;99.90;;;;;;5050998;28;20252;-83
2021/11/11 03:51:46;;;;;;;2.90;2.45;;;4.30;99.90;;;;;;5050939;28;20192;-83
2021/11/11 03:54:13;;;;;;;0.20;0.20;;;4.20;99.90;;;;;;5066097;28;20185;-80
2021/11/11 03:56:42;;;;;;;0.10;0.10;;;4.10;99.90;;;;;;5062331;28;20224;-81
2021/11/11 03:59:10;;;;;;;1.02;1.02;;;4.10;99.90;;;;;;5070545;28;20192;-81
2021/11/11 04:01:37;;;;;;;4.22;2.75;;;4.10;99.90;;;;;;5070751;28;20157;-81
2021/11/11 04:04:03;;;;;;;0.15;0.15;;;4.10;99.90;;;;;;5070626;28;20161;-80
2021/11/11 04:06:31;;;;;;;3.20;1.08;;;4.00;99.90;;;;;;5070659;28;20187;-81
2021/11/11 04:08:59;;;;;;;0.63;0.63;;;3.90;99.90;;;;;;5069294;28;20207;-82
2021/11/11 04:11:27;;;;;;;0.63;0.63;;;3.90;99.90;;;;;;5070644;28;20157;-82
2021/11/11 04:13:54;;;;;;;0.10;0.10;;;3.90;99.90;;;;;;5069331;28;20185;-82
2021/11/11 04:16:21;;;;;;;0.82;0.82;;;3.90;99.90;;;;;;5069427;28;20648;-82
2021/11/11 04:18:47;;;;;;;1.08;1.08;;;3.90;99.90;;;;;;5070444;28;20219;-83
2021/11/11 04:21:15;;;;;;;0.20;0.20;;;4.00;99.90;;;;;;5070495;28;20160;-79
2021/11/11 04:23:41;;;;;;;0.20;0.20;;;3.90;99.90;;;;;;5070314;28;20610;-81
2021/11/11 04:28:39;;;;;;;0.30;0.30;;;3.90;99.90;;;;;;5070247;28;20225;-81
2021/11/11 04:31:11;;;;;;;0.40;0.40;;;3.90;99.90;;;;;;5070191;28;20221;-82
2021/11/11 04:33:40;;;;;;;0.77;0.77;;;3.90;99.90;;;;;;5068490;28;20256;-80
2021/11/11 04:39:19;;;;;;;0.65;0.65;;;4.00;99.90;;;;;;5070129;28;20198;-79
2021/11/11 04:42:04;;;;;;;1.08;1.08;;;3.90;99.90;;;;;;5070007;28;20560;-82
2021/11/11 04:44:56;;;;;;;0.30;0.30;;;4.00;99.90;;;;;;5068874;28;20168;-81
2021/11/11 05:03:32;;;;;;;0.10;0.10;;;4.00;99.90;;;;;;5049841;28;20315;-82
2021/11/11 05:05:59;;;;;;;4.53;3.28;;;4.10;99.90;;;;;;5048563;28;20173;-81
2021/11/11 05:08:26;;;;;;;2.55;1.73;;;4.10;99.90;;;;;;5048418;28;20181;-82
2021/11/11 05:10:52;;;;;;;3.63;2.03;;;4.10;99.90;;;;;;5048394;28;20192;-81
2021/11/11 05:13:19;;;;;;;5.63;1.08;;;4.20;99.90;;;;;;5048946;28;20197;-80
2021/11/11 05:15:45;;;;;;;2.47;1.13;;;4.20;99.90;;;;;;5049781;28;20185;-82
2021/11/11 05:18:11;;;;;;;1.65;1.55;;;4.20;99.90;;;;;;5049291;28;20238;-82
2021/11/11 05:20:38;;;;;;;0.57;0.57;;;4.20;99.90;;;;;;5049222;28;20185;-80
2021/11/11 05:23:04;;;;;;;3.30;3.10;;;4.20;99.90;;;;;;5049160;28;20228;-82
2021/11/11 05:25:30;;;;;;;2.55;2.10;;;4.30;99.90;;;;;;5049139;28;20161;-80
2021/11/11 05:27:56;;;;;;;1.10;1.10;;;4.30;99.90;;;;;;5049785;28;20181;-83
2021/11/11 05:30:23;;;;;;;0.88;0.88;;;4.40;99.90;;;;;;5067568;28;20240;-79
2021/11/11 05:32:50;;;;;;;0.32;0.32;;;4.40;99.90;;;;;;5067478;28;20192;-79
2021/11/11 05:35:17;;;;;;;1.17;1.17;;;4.50;99.90;;;;;;5068969;28;20494;-79
2021/11/11 05:37:44;;;;;;;0.10;0.10;;;4.40;99.90;;;;;;5067642;28;20172;-79
2021/11/11 05:40:13;;;;;;;0.85;0.85;;;4.50;99.90;;;;;;5068607;28;20185;-79
2021/11/11 05:42:38;;;;;;;6.03;1.65;;;4.50;99.90;;;;;;5068780;28;20195;-82
2021/11/11 05:45:06;;;;;;;0.75;0.75;;;4.50;99.90;;;;;;5068611;28;20156;-82
2021/11/11 05:47:32;;;;;;;0.47;0.47;;;4.50;99.90;;;;;;5067379;28;20240;-81
2021/11/11 05:49:57;;;;;;;8.18;2.65;;;4.50;99.90;;;;;;5067638;28;20192;-81
2021/11/11 05:52:23;;;;;;;0.55;0.55;;;4.40;99.90;;;;;;5067210;28;20223;-81
2021/11/11 05:54:51;;;;;;;0.43;0.43;;;4.30;99.90;;;;;;5066979;28;20591;-80
2021/11/11 05:57:17;;;;;;;0.22;0.22;;;4.30;99.90;;;;;;5049259;28;20184;-79
2021/11/11 05:59:44;;;;;;;0.30;0.30;;;4.30;99.90;;;;;;5048434;28;20248;-78
2021/11/11 06:02:13;;;;;;;0.30;0.30;;;4.30;99.90;;;;;;5050450;28;20196;-79
2021/11/11 06:04:40;;;;;;;0.30;0.30;;;4.40;99.90;;;;;;5055317;28;20165;-79
2021/11/11 06:07:07;;;;;;;10.95;4.30;;;4.40;99.90;;;;;;5053832;28;20165;-79
2021/11/11 06:09:33;;;;;;;0.88;0.88;;;4.40;99.90;;;;;;5054028;28;20168;-81
2021/11/11 06:11:59;;;;;;;1.08;0.98;;;4.50;99.90;;;;;;5053567;28;20232;-81
2021/11/11 06:14:26;;;;;;;3.00;1.65;;;4.50;99.90;;;;;;5055138;28;20229;-82
2021/11/11 06:16:52;;;;;;;0.52;0.52;;;4.60;99.90;;;;;;5055249;28;20554;-82
2021/11/11 06:19:18;;;;;;;1.75;1.65;;;4.60;99.90;;;;;;5053786;28;20334;-83
2021/11/11 06:21:45;;;;;;;0.30;0.30;;;4.60;99.90;;;;;;5055050;28;20197;-80
2021/11/11 06:24:12;;;;;;;0.32;0.32;;;4.70;99.90;;;;;;5053787;28;20259;-82
2021/11/11 06:26:38;;;;;;;1.65;1.55;;;4.70;99.90;;;;;;5070011;28;20196;-81
2021/11/11 06:29:05;;;;;;;0.90;0.90;;;4.70;99.90;;;;;;5066291;28;20176;-81
2021/11/11 06:31:32;;;;;;;2.78;2.60;;;4.70;99.90;;;;;;5074699;28;20241;-82
2021/11/11 06:34:00;;;;;;;2.00;1.85;;;4.70;99.90;;;;;;5066580;28;20181;-81
2021/11/11 06:36:25;;;;;;;0.65;0.65;;;4.80;99.90;;;;;;5055067;28;20167;-79
2021/11/11 06:38:51;;;;;;;3.78;1.38;;;4.80;99.90;;;;;;5054842;28;20224;-80
2021/11/11 06:41:17;;;;;;;0.57;0.47;;;4.80;99.90;;;;;;5054784;28;20170;-78
2021/11/11 06:43:43;;;;;;;1.10;1.00;;;4.80;99.90;;;;;;5054823;28;20157;-81
2021/11/11 06:46:10;;;;;;;0.20;0.20;;;4.80;99.90;;;;;;5070283;28;20158;-80
2021/11/11 06:48:37;;;;;;;1.00;0.90;;;5.00;99.90;;;;;;5054755;28;20215;-79
2021/11/11 06:51:05;;;;;;;1.55;0.93;;;5.00;99.90;;;;;;5053215;28;20161;-81
2021/11/11 06:53:31;;;;;;;1.38;1.38;;;5.00;99.90;;;;;;5053169;28;20208;-81
2021/11/11 06:55:58;;;;;;;1.98;1.88;;;5.00;99.90;;;;;;5061352;28;20232;-81
2021/11/11 06:58:24;;;;;;;2.10;1.17;;;4.80;99.90;;;;;;5074501;28;20192;-79
2021/11/11 07:00:54;;;;;;;2.97;2.85;;;4.70;99.90;;;;;;5073290;28;20172;-79
2021/11/11 07:03:20;;;;;;;1.67;1.58;;;4.70;99.90;;;;;;5073035;28;20257;-81
2021/11/11 07:05:47;;;;;;;0.50;0.50;;;4.70;99.90;;;;;;5073454;28;20243;-80
2021/11/11 07:08:14;;;;;;;0.10;0.10;;;4.70;99.90;;;;;;5074628;28;20186;-81
2021/11/11 07:10:46;;;;;;;1.42;1.33;;;4.60;99.90;;;;;;5073109;28;20188;-81
2021/11/11 07:13:12;;;;;;;0.35;0.35;;;4.60;99.90;;;;;;5072808;28;20226;-81
2021/11/11 07:15:40;;;;;;;1.52;1.52;;;4.60;99.90;;;;;;5071106;28;20163;-80
2021/11/11 07:18:08;;;;;;;1.08;1.08;;;4.70;99.90;;;;;;5070014;28;20175;-81
2021/11/11 07:20:34;;;;;;;2.03;1.85;;;4.70;99.90;;;;;;5070512;28;20431;-80
2021/11/11 07:23:03;;;;;;;0.98;0.98;;;4.70;99.90;;;;;;5071448;28;20191;-76
2021/11/11 07:25:30;;;;;;;3.13;2.92;;;4.70;99.90;;;;;;5071109;28;20221;-75
2021/11/11 07:27:57;;;;;;;0.75;0.75;;;4.80;99.90;;;;;;5068716;28;20168;-75
2021/11/11 07:30:24;;;;;;;0.68;0.68;;;4.80;99.90;;;;;;5068860;28;20196;-76
2021/11/11 07:32:51;;;;;;;1.00;1.00;;;4.80;99.90;;;;;;5069083;28;20183;-81
2021/11/11 07:35:18;;;;;;;10.90;3.42;;;4.70;99.90;;;;;;5068291;28;20204;-82
2021/11/11 07:37:47;;;;;;;0.85;0.85;;;4.70;99.90;;;;;;5063099;28;20508;-82
2021/11/11 07:40:17;;;;;;;0.30;0.30;;;4.80;99.90;;;;;;5050494;28;20236;-83
2021/11/11 07:42:45;;;;;;;0.52;0.52;;;4.90;99.90;;;;;;5051070;28;20196;-83
2021/11/11 07:45:12;;;;;;;1.05;1.00;;;5.00;99.90;;;;;;5052330;28;20164;-83
2021/11/11 07:47:39;;;;;;;2.45;1.13;;;5.10;99.90;;;;;;5069687;28;20236;-81
2021/11/11 07:50:08;;;;;;;0.30;0.30;;;5.20;99.90;;;;;;5071681;28;20196;-81
2021/11/11 07:52:34;;;;;;;7.28;3.50;;;5.10;99.90;;;;;;5077146;28;20168;-81
2021/11/11 07:55:01;;;;;;;1.45;1.45;;;5.00;99.90;;;;;;5079014;28;20223;-82
2021/11/11 07:57:31;;;;;;;1.45;1.35;;;5.20;99.90;;;;;;5083188;28;20180;-81
2021/11/11 07:59:57;;;;;;;4.88;2.05;;;5.30;99.90;;;;;;5073585;28;20197;-81
2021/11/11 08:02:23;;;;;;;1.75;1.38;;;5.30;99.90;;;;;;5085418;28;20534;-79
2021/11/11 08:04:51;;;;;;;1.40;1.30;;;5.20;99.90;;;;;;5068344;28;20176;-80
2021/11/11 08:07:18;;;;;;;0.93;0.93;;;5.10;99.90;;;;;;5074344;28;20184;-80
2021/11/11 08:09:45;;;;;;;0.20;0.20;;;5.10;99.90;;;;;;5064673;28;20172;-79
2021/11/11 08:12:11;;;;;;;5.38;3.95;;;5.00;99.90;;;;;;5077415;28;20203;-81
2021/11/11 08:14:39;;;;;;;1.30;1.30;;;5.00;99.90;;;;;;5063977;28;20173;-80
2021/11/11 08:17:06;;;;;;;0.68;0.68;;;4.90;99.90;;;;;;5060391;28;20196;-80
2021/11/11 08:19:32;;;;;;;1.00;0.93;;;4.90;99.90;;;;;;5082662;28;20200;-80
2021/11/11 08:21:58;;;;;;;0.88;0.85;;;4.90;99.90;;;;;;5078587;28;20536;-81
2021/11/11 08:24:33;;;;;;;1.83;1.75;;;4.80;99.90;;;;;;5069841;28;20240;-81
2021/11/11 08:26:59;;;;;;;3.80;2.42;;;4.70;99.90;;;;;;5049176;28;20633;-82
2021/11/11 08:29:25;;;;;;;0.32;0.32;;;4.80;99.90;;;;;;5063198;28;20206;-79
2021/11/11 08:31:52;;;;;;;0.65;0.65;;;4.80;99.90;;;;;;5069934;28;20214;-78
2021/11/11 08:34:17;;;;;;;0.57;0.57;;;4.80;99.90;;;;;;5070244;28;20184;-81
2021/11/11 08:36:43;;;;;;;0.32;0.32;;;4.90;99.90;;;;;;5054189;28;20674;-81
2021/11/11 08:39:09;;;;;;;2.40;2.30;;;4.80;99.90;;;;;;5050570;28;20184;-81
2021/11/11 08:41:35;;;;;;;0.30;0.30;;;4.90;99.90;;;;;;5056746;28;20195;-81
2021/11/11 08:44:05;;;;;;;1.17;1.17;;;4.80;99.90;;;;;;5068875;28;20175;-81
2021/11/11 08:46:31;;;;;;;2.58;2.30;;;4.80;99.90;;;;;;5068368;28;20179;-81
2021/11/11 08:48:57;;;;;;;3.50;1.45;;;4.80;99.90;;;;;;5069884;28;20626;-81
2021/11/11 08:51:23;;;;;;;0.30;0.30;;;4.80;99.90;;;;;;5068836;28;20200;-81
2021/11/11 08:53:49;;;;;;;1.30;1.20;;;4.90;99.90;;;;;;5059793;28;20243;-81
2021/11/11 08:56:15;;;;;;;1.40;0.98;;;5.00;99.90;;;;;;5047935;28;20221;-81
2021/11/11 08:58:41;;;;;;;1.17;0.77;;;5.10;99.90;;;;;;5048886;28;20181;-81
2021/11/11 09:01:08;;;;;;;2.15;1.67;;;5.00;99.90;;;;;;5068370;28;20160;-81
2021/11/11 09:03:39;;;;;;;0.80;0.80;;;4.90;99.90;;;;;;5069593;28;20149;-81
2021/11/11 09:06:06;;;;;;;1.13;1.13;;;4.90;99.90;;;;;;5069716;28;20161;-81
2021/11/11 09:08:33;;;;;;;2.10;2.00;;;5.00;99.90;;;;;;5069827;28;20224;-81
2021/11/11 09:10:59;;;;;;;2.38;2.17;;;5.10;99.90;;;;;;5069316;28;20210;-81
2021/11/11 09:13:28;;;;;;;2.15;1.38;;;5.10;99.90;;;;;;5068384;28;20163;-81
2021/11/11 09:15:54;;;;;;;2.00;1.90;;;5.10;99.90;;;;;;5069855;28;20184;-81
2021/11/11 09:18:20;;;;;;;7.32;3.50;;;5.10;99.90;;;;;;5055577;28;20193;-81
2021/11/11 09:20:46;;;;;;;1.35;1.35;;;5.20;99.90;;;;;;5049360;28;20192;-81
2021/11/11 09:23:12;;;;;;;0.17;0.17;;;5.20;99.90;;;;;;5049243;28;20150;-81
2021/11/11 09:25:39;;;;;;;1.65;1.55;;;5.40;99.90;;;;;;5058509;28;20623;-80
2021/11/11 09:28:06;;;;;;;1.08;0.93;;;5.50;99.90;;;;;;5068952;28;20181;-82
2021/11/11 09:30:36;;;;;;;2.03;1.88;;;5.50;99.90;;;;;;5068961;28;20200;-80
2021/11/11 09:33:04;;;;;;;0.75;0.75;;;5.40;99.90;;;;;;5067617;28;20330;-80
2021/11/11 09:35:31;;;;;;;0.28;0.28;;;5.20;99.90;;;;;;5052630;28;20188;-80
2021/11/11 09:37:58;;;;;;;0.20;0.20;;;5.20;99.90;;;;;;5047540;28;20646;-81
2021/11/11 09:40:27;;;;;;;2.17;2.08;;;5.20;99.90;;;;;;5048834;28;20197;-80
2021/11/11 09:42:55;;;;;;;1.48;1.38;;;5.30;99.90;;;;;;5049088;28;20691;-81
2021/11/11 09:45:24;;;;;;;11.10;4.25;;;5.30;99.90;;;;;;5049027;28;20154;-80
2021/11/11 09:47:52;;;;;;;1.42;1.38;;;5.30;99.90;;;;;;5048486;28;20265;-81
2021/11/11 09:50:20;;;;;;;2.17;2.08;;;5.30;99.90;;;;;;5048794;28;20192;-81
2021/11/11 09:52:49;;;;;;;0.80;0.80;;;5.40;99.90;;;;;;5048981;28;20161;-80
2021/11/11 10:00:51;;;;;;;8.07;2.15;;;5.70;99.90;;;;;;5068435;28;20268;-82
2021/11/11 10:03:18;;;;;;;0.47;0.47;;;5.80;99.90;;;;;;5068836;28;20179;-82
2021/11/11 10:05:44;;;;;;;1.45;1.10;;;5.80;99.90;;;;;;5068741;28;20156;-80
2021/11/11 10:08:35;;;;;;;4.78;2.67;;;5.90;99.90;;;;;;5068794;28;20187;-79
2021/11/11 10:11:01;;;;;;;0.40;0.40;;;6.00;99.90;;;;;;5068711;28;20218;-80
2021/11/11 10:13:28;;;;;;;3.03;2.67;;;5.90;99.90;;;;;;5068639;28;20181;-80
2021/11/11 10:16:17;;;;;;;1.67;1.60;;;5.70;99.90;;;;;;5066860;28;20644;-80
2021/11/11 10:18:52;;;;;;;0.45;0.45;;;5.50;99.90;;;;;;5064100;28;20196;-80
2021/11/11 10:21:29;;;;;;;0.90;0.90;;;5.40;99.90;;;;;;5067373;28;20180;-80
2021/11/11 10:23:59;;;;;;;0.35;0.35;;;5.40;99.90;;;;;;5068348;28;20180;-80
2021/11/11 10:26:40;;;;;;;1.15;1.15;;;5.50;99.90;;;;;;5068358;28;20145;-81
2021/11/11 10:29:18;;;;;;;0.63;0.63;;;5.50;99.90;;;;;;5067014;28;20283;-81
2021/11/11 10:31:54;;;;;;;0.80;0.80;;;5.60;99.90;;;;;;5067095;28;20180;-81
2021/11/11 10:34:21;;;;;;;1.48;1.38;;;5.70;99.90;;;;;;5068339;28;20180;-82
2021/11/11 10:36:53;;;;;;;0.73;0.73;;;5.60;99.90;;;;;;5068268;28;20173;-81
2021/11/11 10:39:24;;;;;;;2.47;2.38;;;5.40;99.90;;;;;;5068027;28;20207;-81
2021/11/11 10:41:52;;;;;;;1.38;0.52;;;5.50;99.90;;;;;;5067386;28;20165;-82
2021/11/11 10:44:26;;;;;;;0.55;0.55;;;5.70;99.90;;;;;;5066784;28;20232;-81
2021/11/11 10:47:02;;;;;;;0.45;0.45;;;5.90;99.90;;;;;;5066583;28;20180;-81
2021/11/11 10:49:40;;;;;;;2.70;1.08;;;6.00;99.90;;;;;;5069515;28;20188;-80
2021/11/11 10:52:26;;;;;;;1.55;1.48;;;6.00;99.90;;;;;;5071859;28;20159;-80
2021/11/11 10:55:06;;;;;;;0.20;0.20;;;5.80;99.90;;;;;;5070364;28;20168;-78
2021/11/11 10:58:10;;;;;;;0.17;0.17;;;5.60;99.90;;;;;;5050612;28;20185;-81
2021/11/11 11:00:47;;;;;;;0.73;0.57;;;5.50;99.90;;;;;;5050331;28;20205;-80
2021/11/11 11:03:19;;;;;;;0.63;0.63;;;5.50;99.90;;;;;;5051779;28;20222;-80
2021/11/11 11:05:52;;;;;;;0.60;0.60;;;5.50;99.90;;;;;;5051803;28;20177;-81
2021/11/11 11:08:30;;;;;;;0.28;0.22;;;5.50;99.90;;;;;;5050164;28;20170;-81
2021/11/11 11:11:08;;;;;;;0.10;0.10;;;5.50;99.90;;;;;;5050229;28;20200;-80
2021/11/11 11:13:40;;;;;;;4.95;2.63;;;5.40;99.90;;;;;;5051566;28;20169;-80
2021/11/11 11:16:08;;;;;;;2.33;2.22;;;5.60;99.90;;;;;;5050144;28;20177;-80
2021/11/11 11:18:38;;;;;;;4.35;1.45;;;5.80;99.90;;;;;;5051204;28;20169;-79
2021/11/11 11:21:09;;;;;;;0.43;0.43;;;5.80;99.90;;;;;;5050115;28;20177;-79
2021/11/11 11:23:41;;;;;;;1.38;1.33;;;5.80;99.90;;;;;;5050065;28;20169;-80
2021/11/11 11:26:26;;;;;;;0.90;0.90;;;5.70;99.90;;;;;;5049932;28;20247;-80
2021/11/11 11:29:22;;;;;;;0.57;0.57;;;5.70;99.90;;;;;;5059696;28;20181;-79
2021/11/11 11:32:05;;;;;;;0.10;0.10;;;5.80;99.90;;;;;;5070749;28;20181;-82
2021/11/11 11:34:34;;;;;;;1.15;1.08;;;5.80;99.90;;;;;;5071144;28;20183;-82
2021/11/11 11:37:04;;;;;;;0.20;0.20;;;5.80;99.90;;;;;;5069838;28;20176;-80
2021/11/11 11:39:39;;;;;;;3.20;1.80;;;5.80;99.90;;;;;;5070307;28;20210;-82
2021/11/11 11:42:09;;;;;;;0.32;0.32;;;5.60;99.90;;;;;;5059578;28;20164;-79
2021/11/11 11:44:47;;;;;;;7.43;1.63;;;5.50;99.90;;;;;;5060733;28;20167;-81
2021/11/11 11:47:30;;;;;;;1.80;1.45;;;5.50;99.90;;;;;;5060810;28;20225;-81
2021/11/11 11:50:03;;;;;;;1.35;0.82;;;5.70;99.90;;;;;;5058545;28;20197;-79
2021/11/11 11:52:31;;;;;;;0.93;0.93;;;6.10;99.90;;;;;;5057784;28;20535;-79
2021/11/11 12:00:21;;;;;;;1.88;1.77;;;6.20;99.90;;;;;;5070063;28;20253;-82
2021/11/11 12:05:45;;;;;;;1.02;1.02;;;6.10;99.90;;;;;;5070607;28;20236;-80
2021/11/11 12:08:49;;;;;;;3.05;2.85;;;5.90;99.90;;;;;;5070562;28;20184;-78
2021/11/11 12:39:40;;;;;;;0.00;0.00;;;5.70;99.90;;;;;;5049924;28;20220;-79
2021/11/11 12:42:33;;;;;;;1.35;1.27;;;5.50;99.90;;;;;;5049748;28;20161;-79
2021/11/11 12:45:18;;;;;;;0.57;0.57;;;5.60;99.90;;;;;;5049660;28;20203;-81
2021/11/11 12:48:10;;;;;;;0.98;0.85;;;5.50;99.90;;;;;;5049962;28;20157;-81
2021/11/11 12:50:46;;;;;;;0.40;0.40;;;5.60;99.90;;;;;;5049162;28;20209;-81
2021/11/11 12:53:16;;;;;;;0.85;0.85;;;5.60;99.90;;;;;;5049467;28;20173;-81
2021/11/11 12:56:07;;;;;;;0.55;0.55;;;5.60;99.90;;;;;;5049385;28;20209;-80
2021/11/11 12:58:44;;;;;;;1.20;1.05;;;5.60;99.90;;;;;;5049548;28;20249;-80
2021/11/11 13:01:16;;;;;;;1.75;1.65;;;5.60;99.90;;;;;;5048284;28;20232;-80
2021/11/11 13:04:05;;;;;;;0.32;0.32;;;5.60;99.90;;;;;;5049457;28;20173;-81
2021/11/11 13:06:49;;;;;;;0.10;0.10;;;5.90;99.90;;;;;;5049398;28;20150;-81
2021/11/11 13:09:19;;;;;;;0.88;0.88;;;5.90;99.90;;;;;;5047987;28;20293;-81
2021/11/11 13:11:57;;;;;;;0.55;0.55;;;5.90;99.90;;;;;;5048568;28;20169;-80
2021/11/11 13:14:26;;;;;;;0.68;0.68;;;5.80;99.90;;;;;;5047929;28;20186;-81
2021/11/11 13:16:58;;;;;;;0.57;0.57;;;5.60;99.90;;;;;;5049472;28;20264;-81
2021/11/11 13:19:38;;;;;;;0.35;0.35;;;5.60;99.90;;;;;;5047994;28;20299;-80
2021/11/11 13:22:31;;;;;;;4.82;3.97;;;5.50;99.90;;;;;;5047830;28;20226;-80
2021/11/11 14:27:32;;;;;;;4.80;1.27;;;5.70;99.90;;;;;;5068121;28;20164;-81
2021/11/11 16:02:37;;;;;;;4.07;1.23;;;5.70;99.90;;;;;;5070781;28;20210;-80
2021/11/11 16:26:32;;;;;;;1.10;1.02;;;5.70;99.90;;;;;;5070358;28;20164;-80
2021/11/11 16:29:00;;;;;;;0.80;0.38;;;5.70;99.90;;;;;;5068803;28;20168;-81
2021/11/11 16:31:27;;;;;;;1.88;1.80;;;5.80;99.90;;;;;;5068465;28;20167;-81
2021/11/11 16:33:56;;;;;;;0.25;0.25;;;5.60;99.90;;;;;;5067088;28;20283;-80
2021/11/11 16:36:22;;;;;;;0.40;0.40;;;5.50;99.90;;;;;;5069444;28;20180;-80
2021/11/11 16:38:50;;;;;;;0.32;0.32;;;5.40;99.90;;;;;;5070101;28;20191;-81
2021/11/11 16:41:17;;;;;;;5.25;2.25;;;5.40;99.90;;;;;;5070044;28;20585;-80
2021/11/11 16:43:44;;;;;;;1.83;1.70;;;5.40;99.90;;;;;;5068914;28;20187;-81
2021/11/11 16:46:11;;;;;;;0.85;0.85;;;5.40;99.90;;;;;;5069196;28;20567;-81
2021/11/11 16:48:39;;;;;;;0.10;0.10;;;5.50;99.90;;;;;;5069398;28;20187;-80
2021/11/11 16:51:07;;;;;;;1.50;1.40;;;5.40;99.90;;;;;;5068505;28;20172;-81
2021/11/11 16:53:34;;;;;;;0.45;0.40;;;5.40;99.90;;;;;;5069921;28;20625;-81
2021/11/11 16:56:00;;;;;;;0.20;0.20;;;5.40;99.90;;;;;;5062097;28;20243;-81
2021/11/11 16:58:26;;;;;;;1.02;1.02;;;5.40;99.90;;;;;;5049627;28;20189;-81
2021/11/11 17:00:54;;;;;;;0.22;0.22;;;5.40;99.90;;;;;;5049648;28;20193;-81
2021/11/11 17:03:22;;;;;;;0.70;0.63;;;5.40;99.90;;;;;;5049507;28;20161;-82
2021/11/11 17:05:49;;;;;;;0.60;0.60;;;5.40;99.90;;;;;;5049740;28;20205;-83
2021/11/11 17:08:16;;;;;;;0.60;0.60;;;5.40;99.90;;;;;;5049386;28;20185;-81